Time;durP1;ratioP1;P1;durP2;ratioP2;P2;SDS_P1;SDS_P2;PMS_P1;PMS_P2;Temp;Humidity;BMP_temperature;BMP_pressure;BME280_temperature;BME280_humidity;BME280_pressure;Samples;Min_cycle;Max_cycle;Signal;HPM_P1;HPM_P2
2023/06/26 00:01:13;;;;;;;;;;;;;;;;;;5005977;28;1253271;-52
2023/06/26 00:03:38;;;;;;;;;;;;;;;;;;5047563;28;5073;-50
2023/06/26 00:06:03;;;;;;;;;;;;;;;;;;5049588;28;4691;-52
2023/06/26 00:08:29;;;;;;;;;;;;;;;;;;5050234;28;1984;-53
2023/06/26 00:10:54;;;;;;;;;;;;;;;;;;5046102;28;4442;-52
2023/06/26 00:13:19;;;;;;;;;;;;;;;;;;5047107;28;4616;-53
2023/06/26 00:15:45;;;;;;;;;;;;;;;;;;5044600;28;5371;-52
2023/06/26 00:18:10;;;;;;;;;;;;;;;;;;5048240;28;4945;-53
2023/06/26 00:20:35;;;;;;;;;;;;;;;;;;5050419;28;1455;-53
2023/06/26 00:23:01;;;;;;;;;;;;;;;;;;5049241;28;4934;-53
2023/06/26 00:25:26;;;;;;;;;;;;;;;;;;5048883;28;4989;-54
2023/06/26 00:27:51;;;;;;;;;;;;;;;;;;5042481;28;4974;-54
2023/06/26 00:30:16;;;;;;;;;;;;;;;;;;5048902;28;5063;-53
2023/06/26 00:32:41;;;;;;;;;;;;;;;;;;5050241;28;1081;-53
2023/06/26 00:35:07;;;;;;;;;;;;;;;;;;5049217;28;4430;-54
2023/06/26 00:37:32;;;;;;;;;;;;;;;;;;5048906;28;5011;-52
2023/06/26 00:39:57;;;;;;;;;;;;;;;;;;5041771;28;5145;-53
2023/06/26 00:42:23;;;;;;;;;;;;;;;;;;5047598;28;4994;-53
2023/06/26 00:44:48;;;;;;;;;;;;;;;;;;5049125;28;1089;-54
2023/06/26 00:47:14;;;;;;;;;;;;;;;;;;5046960;28;4926;-53
2023/06/26 00:49:39;;;;;;;;;;;;;;;;;;5047524;28;5047;-55
2023/06/26 00:52:04;;;;;;;;;;;;;;;;;;5047164;28;5210;-55
2023/06/26 00:54:30;;;;;;;;;;;;;;;;;;5039931;28;4624;-54
2023/06/26 00:56:55;;;;;;;;;;;;;;;;;;5045944;28;4953;-53
2023/06/26 00:59:20;;;;;;;;;;;;;;;;;;5080782;28;1270;-54
2023/06/26 01:01:45;;;;;;;;;;;;;;;;;;5039213;28;4918;-55
2023/06/26 01:04:17;;;;;;;;;;;;;;;;;;5046884;28;5012;-55
2023/06/26 01:06:42;;;;;;;;;;;;;;;;;;5040467;28;5053;-54
2023/06/26 01:09:07;;;;;;;;;;;;;;;;;;5032073;28;5116;-54
2023/06/26 01:11:32;;;;;;;;;;;;;;;;;;5060120;28;1368;-55
2023/06/26 01:13:58;;;;;;;;;;;;;;;;;;5044183;28;5014;-55
2023/06/26 01:16:23;;;;;;;;;;;;;;;;;;5055265;28;4444;-54
2023/06/26 01:18:48;;;;;;;;;;;;;;;;;;5038791;28;4472;-54
2023/06/26 01:21:14;;;;;;;;;;;;;;;;;;5043003;28;4459;-54
2023/06/26 01:23:47;;;;;;;;;;;;;;;;;;5026164;28;1401;-54
2023/06/26 01:26:22;;;;;;;;;;;;;;;;;;5037177;28;4595;-56
2023/06/26 01:28:48;;;;;;;;;;;;;;;;;;5042183;28;5013;-53
2023/06/26 01:31:13;;;;;;;;;;;;;;;;;;5048043;28;5034;-55
2023/06/26 01:33:39;;;;;;;;;;;;;;;;;;5043165;28;4963;-55
2023/06/26 01:36:04;;;;;;;;;;;;;;;;;;5042136;28;5013;-55
2023/06/26 01:38:30;;;;;;;;;;;;;;;;;;5048418;28;1122;-54
2023/06/26 01:40:55;;;;;;;;;;;;;;;;;;5047801;28;4936;-54
2023/06/26 01:43:39;;;;;;;;;;;;;;;;;;5047919;28;4442;-51
2023/06/26 01:46:05;;;;;;;;;;;;;;;;;;5047678;28;4857;-54
2023/06/26 01:48:32;;;;;;;;;;;;;;;;;;5047891;28;5348;-53
2023/06/26 01:50:58;;;;;;;;;;;;;;;;;;5056552;28;5016;-54
2023/06/26 01:53:24;;;;;;;;;;;;;;;;;;5044804;28;1156;-52
2023/06/26 01:56:10;;;;;;;;;;;;;;;;;;5043883;28;5498;-54
2023/06/26 01:58:35;;;;;;;;;;;;;;;;;;5047669;28;5038;-54
2023/06/26 02:01:00;;;;;;;;;;;;;;;;;;5046015;28;5163;-52
2023/06/26 02:03:26;;;;;;;;;;;;;;;;;;5045293;28;5205;-54
2023/06/26 02:05:51;;;;;;;;;;;;;;;;;;5038926;28;1115;-53
2023/06/26 02:08:16;;;;;;;;;;;;;;;;;;5047397;28;5002;-53
2023/06/26 02:10:42;;;;;;;;;;;;;;;;;;5046160;28;5042;-54
2023/06/26 02:13:07;;;;;;;;;;;;;;;;;;5047767;28;5010;-53
2023/06/26 02:15:32;;;;;;;;;;;;;;;;;;5047368;28;5179;-51
2023/06/26 02:17:57;;;;;;;;;;;;;;;;;;5040083;28;5289;-54
2023/06/26 02:20:23;;;;;;;;;;;;;;;;;;5046015;28;1210;-53
2023/06/26 02:22:48;;;;;;;;;;;;;;;;;;5047844;28;4841;-53
2023/06/26 02:25:14;;;;;;;;;;;;;;;;;;5047297;28;4503;-53
2023/06/26 02:27:39;;;;;;;;;;;;;;;;;;5040667;28;4663;-51
2023/06/26 02:30:04;;;;;;;;;;;;;;;;;;5047510;28;5011;-53
2023/06/26 02:32:30;;;;;;;;;;;;;;;;;;5039123;28;1417;-52
2023/06/26 02:34:55;;;;;;;;;;;;;;;;;;5046093;28;4499;-53
2023/06/26 02:37:20;;;;;;;;;;;;;;;;;;5046916;28;5128;-53
2023/06/26 02:39:45;;;;;;;;;;;;;;;;;;5047570;28;5110;-53
2023/06/26 02:42:11;;;;;;;;;;;;;;;;;;5047061;28;5050;-53
2023/06/26 02:44:36;;;;;;;;;;;;;;;;;;5047397;28;1225;-54
2023/06/26 02:47:01;;;;;;;;;;;;;;;;;;5040174;28;4573;-52
2023/06/26 02:49:26;;;;;;;;;;;;;;;;;;5046287;28;5092;-52
2023/06/26 02:51:52;;;;;;;;;;;;;;;;;;5049690;28;5017;-54
2023/06/26 02:54:17;;;;;;;;;;;;;;;;;;5047405;28;4977;-52
2023/06/26 02:56:42;;;;;;;;;;;;;;;;;;5048846;28;1376;-52
2023/06/26 02:59:07;;;;;;;;;;;;;;;;;;5050586;28;5075;-53
2023/06/26 03:01:33;;;;;;;;;;;;;;;;;;5044759;28;5109;-53
2023/06/26 03:04:00;;;;;;;;;;;;;;;;;;5047842;28;5206;-52
2023/06/26 03:06:25;;;;;;;;;;;;;;;;;;5050559;28;4650;-52
2023/06/26 03:08:51;;;;;;;;;;;;;;;;;;5049257;28;1979;-54
2023/06/26 03:11:16;;;;;;;;;;;;;;;;;;5049025;28;4954;-53
2023/06/26 03:13:41;;;;;;;;;;;;;;;;;;5048864;28;4638;-53
2023/06/26 03:16:06;;;;;;;;;;;;;;;;;;5043382;28;4492;-55
2023/06/26 03:18:31;;;;;;;;;;;;;;;;;;5050646;28;5036;-51
2023/06/26 03:20:57;;;;;;;;;;;;;;;;;;5050917;28;5034;-54
2023/06/26 03:23:22;;;;;;;;;;;;;;;;;;5050821;28;1157;-53
2023/06/26 03:25:48;;;;;;;;;;;;;;;;;;5047617;28;4393;-53
2023/06/26 03:28:13;;;;;;;;;;;;;;;;;;5042601;28;5145;-54
2023/06/26 03:30:39;;;;;;;;;;;;;;;;;;5042376;28;5186;-54
2023/06/26 03:33:04;;;;;;;;;;;;;;;;;;5049284;28;4470;-53
2023/06/26 03:35:29;;;;;;;;;;;;;;;;;;5048244;28;2317;-51
2023/06/26 03:37:54;;;;;;;;;;;;;;;;;;5050368;28;4584;-53
2023/06/26 03:40:20;;;;;;;;;;;;;;;;;;5050109;28;4456;-58
2023/06/26 03:42:45;;;;;;;;;;;;;;;;;;5040166;28;4445;-53
2023/06/26 03:45:10;;;;;;;;;;;;;;;;;;5050108;28;4591;-52
2023/06/26 03:47:35;;;;;;;;;;;;;;;;;;5043277;28;3174;-53
2023/06/26 03:50:01;;;;;;;;;;;;;;;;;;5045122;28;4995;-53
2023/06/26 03:52:26;;;;;;;;;;;;;;;;;;5050017;28;5157;-52
2023/06/26 03:54:51;;;;;;;;;;;;;;;;;;5037905;28;4942;-52
2023/06/26 03:57:16;;;;;;;;;;;;;;;;;;5041903;28;5047;-51
2023/06/26 03:59:42;;;;;;;;;;;;;;;;;;5041318;28;3229;-51
2023/06/26 04:02:07;;;;;;;;;;;;;;;;;;5044454;28;4728;-52
2023/06/26 04:04:32;;;;;;;;;;;;;;;;;;5047392;28;5014;-54
2023/06/26 04:06:59;;;;;;;;;;;;;;;;;;5045425;28;5017;-54
2023/06/26 04:09:24;;;;;;;;;;;;;;;;;;5047045;28;5135;-54
2023/06/26 04:11:49;;;;;;;;;;;;;;;;;;5045578;28;1282;-52
2023/06/26 04:14:15;;;;;;;;;;;;;;;;;;5045155;28;4995;-54
2023/06/26 04:16:40;;;;;;;;;;;;;;;;;;5049305;28;5057;-55
2023/06/26 04:19:05;;;;;;;;;;;;;;;;;;5049030;28;4824;-54
2023/06/26 04:21:30;;;;;;;;;;;;;;;;;;5049598;28;4843;-53
2023/06/26 04:23:56;;;;;;;;;;;;;;;;;;5049041;28;4836;-53
2023/06/26 04:26:21;;;;;;;;;;;;;;;;;;5024673;28;1370;-54
2023/06/26 04:28:46;;;;;;;;;;;;;;;;;;5047899;28;5018;-54
2023/06/26 04:31:11;;;;;;;;;;;;;;;;;;5041451;28;4917;-54
2023/06/26 04:33:37;;;;;;;;;;;;;;;;;;5041557;28;4693;-54
2023/06/26 04:36:05;;;;;;;;;;;;;;;;;;5047340;28;4920;-54
2023/06/26 04:38:31;;;;;;;;;;;;;;;;;;5047268;28;3186;-54
2023/06/26 04:40:56;;;;;;;;;;;;;;;;;;5039371;28;4538;-53
2023/06/26 04:43:22;;;;;;;;;;;;;;;;;;5044899;28;4963;-54
2023/06/26 04:45:47;;;;;;;;;;;;;;;;;;5044300;28;4947;-53
2023/06/26 04:48:12;;;;;;;;;;;;;;;;;;5044224;28;5180;-55
2023/06/26 04:50:38;;;;;;;;;;;;;;;;;;5048679;28;2149;-55
2023/06/26 04:53:03;;;;;;;;;;;;;;;;;;5039533;28;4966;-53
2023/06/26 04:55:28;;;;;;;;;;;;;;;;;;5039771;28;5222;-54
2023/06/26 04:57:53;;;;;;;;;;;;;;;;;;5045315;28;4774;-54
2023/06/26 05:00:19;;;;;;;;;;;;;;;;;;5048143;28;4517;-53
2023/06/26 05:02:44;;;;;;;;;;;;;;;;;;5041561;28;5065;-52
2023/06/26 05:05:10;;;;;;;;;;;;;;;;;;5042909;28;4605;-54
2023/06/26 05:07:35;;;;;;;;;;;;;;;;;;5040837;28;4868;-53
2023/06/26 05:10:00;;;;;;;;;;;;;;;;;;5047102;28;4616;-53
2023/06/26 05:12:26;;;;;;;;;;;;;;;;;;5047085;28;4676;-53
2023/06/26 05:14:51;;;;;;;;;;;;;;;;;;5046139;28;3248;-54
2023/06/26 05:17:16;;;;;;;;;;;;;;;;;;5036266;28;4554;-56
2023/06/26 05:19:41;;;;;;;;;;;;;;;;;;5048035;28;4415;-53
2023/06/26 05:22:07;;;;;;;;;;;;;;;;;;5041189;28;4479;-54
2023/06/26 05:24:36;;;;;;;;;;;;;;;;;;5048340;28;5006;-53
2023/06/26 05:27:02;;;;;;;;;;;;;;;;;;5041559;28;5692;-53
2023/06/26 05:29:27;;;;;;;;;;;;;;;;;;5044423;28;1979;-53
2023/06/26 05:31:52;;;;;;;;;;;;;;;;;;5048265;28;5025;-53
2023/06/26 05:34:18;;;;;;;;;;;;;;;;;;5045110;28;4448;-53
2023/06/26 05:36:43;;;;;;;;;;;;;;;;;;5029771;28;4652;-55
2023/06/26 05:39:09;;;;;;;;;;;;;;;;;;5037582;28;4995;-52
2023/06/26 05:41:34;;;;;;;;;;;;;;;;;;5041283;28;3253;-52
2023/06/26 05:43:59;;;;;;;;;;;;;;;;;;5049325;28;4987;-52
2023/06/26 05:46:25;;;;;;;;;;;;;;;;;;5039286;28;4588;-54
2023/06/26 05:48:50;;;;;;;;;;;;;;;;;;5043852;28;4650;-52
2023/06/26 05:51:15;;;;;;;;;;;;;;;;;;5041812;28;5111;-51
2023/06/26 05:53:41;;;;;;;;;;;;;;;;;;5034962;28;3357;-53
2023/06/26 05:56:06;;;;;;;;;;;;;;;;;;5035359;28;4535;-52
2023/06/26 05:58:31;;;;;;;;;;;;;;;;;;5044641;28;4574;-54
2023/06/26 06:00:56;;;;;;;;;;;;;;;;;;5039248;28;5005;-54
2023/06/26 06:03:22;;;;;;;;;;;;;;;;;;5040476;28;5243;-53
2023/06/26 06:05:47;;;;;;;;;;;;;;;;;;5043390;28;1144;-53
2023/06/26 06:08:13;;;;;;;;;;;;;;;;;;5044997;28;4448;-53
2023/06/26 06:10:38;;;;;;;;;;;;;;;;;;5044380;28;5032;-52
2023/06/26 06:13:03;;;;;;;;;;;;;;;;;;5045840;28;5075;-53
2023/06/26 06:15:28;;;;;;;;;;;;;;;;;;5045627;28;4558;-54
2023/06/26 06:17:54;;;;;;;;;;;;;;;;;;5035224;28;1093;-52
2023/06/26 06:20:22;;;;;;;;;;;;;;;;;;5046769;28;4837;-50
2023/06/26 06:22:48;;;;;;;;;;;;;;;;;;5045760;28;4492;-53
2023/06/26 06:25:13;;;;;;;;;;;;;;;;;;5047034;28;5013;-55
2023/06/26 06:27:39;;;;;;;;;;;;;;;;;;5046042;28;5053;-56
2023/06/26 06:30:04;;;;;;;;;;;;;;;;;;5046815;28;5010;-56
2023/06/26 06:32:29;;;;;;;;;;;;;;;;;;5051120;28;1093;-56
2023/06/26 06:34:55;;;;;;;;;;;;;;;;;;5048443;28;5546;-56
2023/06/26 06:37:20;;;;;;;;;;;;;;;;;;5049932;28;4623;-56
2023/06/26 06:39:45;;;;;;;;;;;;;;;;;;5050791;28;5036;-56
2023/06/26 06:42:10;;;;;;;;;;;;;;;;;;5048510;28;5186;-57
2023/06/26 06:44:36;;;;;;;;;;;;;;;;;;5050281;28;1223;-55
2023/06/26 06:47:01;;;;;;;;;;;;;;;;;;5047441;28;5544;-56
2023/06/26 06:49:26;;;;;;;;;;;;;;;;;;5047689;28;5929;-56
2023/06/26 06:51:51;;;;;;;;;;;;;;;;;;5050941;28;5099;-56
2023/06/26 06:54:17;;;;;;;;;;;;;;;;;;5047742;28;5064;-56
2023/06/26 06:56:42;;;;;;;;;;;;;;;;;;5043988;28;3208;-56
2023/06/26 06:59:08;;;;;;;;;;;;;;;;;;5041520;28;5068;-56
2023/06/26 07:01:33;;;;;;;;;;;;;;;;;;5049638;28;5135;-56
2023/06/26 07:03:59;;;;;;;;;;;;;;;;;;5050124;28;5196;-56
2023/06/26 07:06:24;;;;;;;;;;;;;;;;;;5044609;28;5014;-55
2023/06/26 07:08:49;;;;;;;;;;;;;;;;;;5046097;28;3063;-55
2023/06/26 07:11:15;;;;;;;;;;;;;;;;;;5042362;28;5059;-54
2023/06/26 07:13:40;;;;;;;;;;;;;;;;;;5028880;28;5022;-56
2023/06/26 07:16:05;;;;;;;;;;;;;;;;;;5044871;28;5180;-56
2023/06/26 07:18:31;;;;;;;;;;;;;;;;;;5046445;28;4928;-56
2023/06/26 07:20:56;;;;;;;;;;;;;;;;;;5057339;28;4956;-54
2023/06/26 07:23:21;;;;;;;;;;;;;;;;;;5040909;28;1077;-55
2023/06/26 07:25:46;;;;;;;;;;;;;;;;;;5043959;28;4929;-57
2023/06/26 07:28:11;;;;;;;;;;;;;;;;;;5036539;28;4840;-56
2023/06/26 07:30:37;;;;;;;;;;;;;;;;;;5045076;28;4621;-55
2023/06/26 07:33:02;;;;;;;;;;;;;;;;;;5048255;28;4660;-56
2023/06/26 07:35:27;;;;;;;;;;;;;;;;;;5050051;28;1954;-56
2023/06/26 07:37:53;;;;;;;;;;;;;;;;;;5048985;28;5022;-56
2023/06/26 07:40:18;;;;;;;;;;;;;;;;;;5048477;28;5091;-56
2023/06/26 07:42:43;;;;;;;;;;;;;;;;;;5041256;28;5033;-56
2023/06/26 07:45:12;;;;;;;;;;;;;;;;;;5037114;28;5187;-59
2023/06/26 07:47:40;;;;;;;;;;;;;;;;;;5041434;28;3236;-58
2023/06/26 07:50:06;;;;;;;;;;;;;;;;;;5042567;28;5096;-58
2023/06/26 07:52:31;;;;;;;;;;;;;;;;;;5039912;28;4682;-57
2023/06/26 07:54:56;;;;;;;;;;;;;;;;;;5043339;28;5082;-58
2023/06/26 07:57:22;;;;;;;;;;;;;;;;;;5042126;28;4484;-57
2023/06/26 07:59:47;;;;;;;;;;;;;;;;;;5029123;28;6533;-57
2023/06/26 08:02:12;;;;;;;;;;;;;;;;;;5031310;28;5733;-57
2023/06/26 08:04:37;;;;;;;;;;;;;;;;;;5030776;28;5511;-58
2023/06/26 08:07:06;;;;;;;;;;;;;;;;;;5039300;28;5035;-56
2023/06/26 08:09:32;;;;;;;;;;;;;;;;;;5037106;28;5186;-55
2023/06/26 08:11:57;;;;;;;;;;;;;;;;;;5039591;28;5126;-53
2023/06/26 08:14:23;;;;;;;;;;;;;;;;;;5035784;28;5035;-55
2023/06/26 08:16:48;;;;;;;;;;;;;;;;;;5038735;28;4786;-54
2023/06/26 08:19:14;;;;;;;;;;;;;;;;;;5034906;28;6078;-55
2023/06/26 08:21:39;;;;;;;;;;;;;;;;;;5042214;28;4472;-54
2023/06/26 08:24:05;;;;;;;;;;;;;;;;;;5041645;28;4613;-55
2023/06/26 08:26:30;;;;;;;;;;;;;;;;;;5034948;28;4978;-54
2023/06/26 08:28:55;;;;;;;;;;;;;;;;;;5040567;28;2203;-55
2023/06/26 08:31:20;;;;;;;;;;;;;;;;;;5051235;28;5021;-54
2023/06/26 08:33:46;;;;;;;;;;;;;;;;;;5039061;28;6049;-56
2023/06/26 08:36:11;;;;;;;;;;;;;;;;;;5040380;28;4508;-56
2023/06/26 08:38:36;;;;;;;;;;;;;;;;;;5033350;28;4978;-56
2023/06/26 08:41:02;;;;;;;;;;;;;;;;;;5035198;28;3245;-55
2023/06/26 08:43:28;;;;;;;;;;;;;;;;;;5038155;28;5236;-55
2023/06/26 08:45:53;;;;;;;;;;;;;;;;;;5037501;28;5055;-55
2023/06/26 08:48:18;;;;;;;;;;;;;;;;;;5037606;28;5274;-55
2023/06/26 08:50:44;;;;;;;;;;;;;;;;;;5044579;28;4519;-55
2023/06/26 08:53:18;;;;;;;;;;;;;;;;;;5033780;28;3181;-55
2023/06/26 08:55:43;;;;;;;;;;;;;;;;;;5037954;28;4842;-55
2023/06/26 08:58:09;;;;;;;;;;;;;;;;;;5034755;28;4850;-59
2023/06/26 09:00:34;;;;;;;;;;;;;;;;;;5019312;28;4516;-54
2023/06/26 09:02:59;;;;;;;;;;;;;;;;;;5040279;28;4583;-54
2023/06/26 09:05:27;;;;;;;;;;;;;;;;;;5035133;28;5039;-56
2023/06/26 09:07:55;;;;;;;;;;;;;;;;;;5032504;28;5040;-56
2023/06/26 09:10:20;;;;;;;;;;;;;;;;;;5031362;28;4504;-56
2023/06/26 09:12:46;;;;;;;;;;;;;;;;;;5039321;28;5033;-56
2023/06/26 09:15:13;;;;;;;;;;;;;;;;;;5035668;28;4654;-56
2023/06/26 09:17:39;;;;;;;;;;;;;;;;;;5036065;28;4541;-55
2023/06/26 09:20:05;;;;;;;;;;;;;;;;;;5035159;28;3373;-56
2023/06/26 09:22:33;;;;;;;;;;;;;;;;;;5042573;28;5011;-54
2023/06/26 09:24:58;;;;;;;;;;;;;;;;;;5035518;28;4566;-57
2023/06/26 09:27:23;;;;;;;;;;;;;;;;;;5036072;28;4514;-56
2023/06/26 09:29:48;;;;;;;;;;;;;;;;;;5041111;28;4932;-56
2023/06/26 09:32:14;;;;;;;;;;;;;;;;;;5038681;28;4497;-55
2023/06/26 09:34:41;;;;;;;;;;;;;;;;;;5035587;28;3393;-54
2023/06/26 09:37:06;;;;;;;;;;;;;;;;;;5036155;28;4994;-54
2023/06/26 09:39:31;;;;;;;;;;;;;;;;;;5039489;28;5052;-54
2023/06/26 09:41:57;;;;;;;;;;;;;;;;;;5040695;28;5223;-54
2023/06/26 09:44:22;;;;;;;;;;;;;;;;;;5043440;28;4992;-55
2023/06/26 09:46:48;;;;;;;;;;;;;;;;;;5031642;28;3296;-55
2023/06/26 09:49:13;;;;;;;;;;;;;;;;;;5035699;28;4562;-56
2023/06/26 09:51:39;;;;;;;;;;;;;;;;;;5041008;28;5038;-55
2023/06/26 09:54:04;;;;;;;;;;;;;;;;;;5038472;28;5044;-56
2023/06/26 09:56:30;;;;;;;;;;;;;;;;;;5034724;28;5033;-55
2023/06/26 09:58:56;;;;;;;;;;;;;;;;;;5035354;28;3288;-54
2023/06/26 10:01:22;;;;;;;;;;;;;;;;;;5042943;28;4500;-56
2023/06/26 10:03:47;;;;;;;;;;;;;;;;;;5046133;28;5210;-56
2023/06/26 10:06:13;;;;;;;;;;;;;;;;;;5046718;28;4982;-56
2023/06/26 10:08:38;;;;;;;;;;;;;;;;;;5053572;28;5029;-56
2023/06/26 10:11:03;;;;;;;;;;;;;;;;;;5037891;28;3179;-55
2023/06/26 10:13:31;;;;;;;;;;;;;;;;;;5047601;28;4965;-55
2023/06/26 10:15:56;;;;;;;;;;;;;;;;;;5030382;28;5219;-56
2023/06/26 10:18:21;;;;;;;;;;;;;;;;;;5080057;28;4619;-56
2023/06/26 10:20:47;;;;;;;;;;;;;;;;;;5046398;28;5551;-55
2023/06/26 10:23:12;;;;;;;;;;;;;;;;;;5039357;28;4687;-55
2023/06/26 10:25:37;;;;;;;;;;;;;;;;;;5053144;28;3245;-54
2023/06/26 10:28:03;;;;;;;;;;;;;;;;;;5060555;28;4735;-56
2023/06/26 10:30:29;;;;;;;;;;;;;;;;;;5041281;28;4501;-53
2023/06/26 10:32:54;;;;;;;;;;;;;;;;;;5044103;28;5016;-53
2023/06/26 10:35:20;;;;;;;;;;;;;;;;;;5042595;28;4639;-58
2023/06/26 10:37:46;;;;;;;;;;;;;;;;;;5046871;28;1264;-58
2023/06/26 10:40:12;;;;;;;;;;;;;;;;;;5040847;28;4507;-56
2023/06/26 10:42:38;;;;;;;;;;;;;;;;;;5044849;28;4924;-57
2023/06/26 10:45:16;;;;;;;;;;;;;;;;;;5039896;28;4713;-57
2023/06/26 10:47:41;;;;;;;;;;;;;;;;;;5042302;28;5120;-57
2023/06/26 10:50:17;;;;;;;;;;;;;;;;;;5042351;28;1176;-57
2023/06/26 10:52:42;;;;;;;;;;;;;;;;;;5053279;28;5124;-58
2023/06/26 10:55:08;;;;;;;;;;;;;;;;;;5036332;28;4481;-57
2023/06/26 10:57:33;;;;;;;;;;;;;;;;;;5041762;28;4914;-58
2023/06/26 11:00:11;;;;;;;;;;;;;;;;;;5040563;28;5152;-58
2023/06/26 11:02:50;;;;;;;;;;;;;;;;;;5045861;28;5016;-58
2023/06/26 11:05:23;;;;;;;;;;;;;;;;;;5044201;28;4555;-58
2023/06/26 11:08:20;;;;;;;;;;;;;;;;;;5042761;28;5010;-56
2023/06/26 11:10:51;;;;;;;;;;;;;;;;;;5038398;28;4983;-59
2023/06/26 11:13:18;;;;;;;;;;;;;;;;;;5045377;28;4822;-59
2023/06/26 11:15:44;;;;;;;;;;;;;;;;;;5038701;28;5056;-58
2023/06/26 11:18:09;;;;;;;;;;;;;;;;;;5040927;28;4617;-58
2023/06/26 11:20:35;;;;;;;;;;;;;;;;;;5038633;28;4924;-56
2023/06/26 11:23:00;;;;;;;;;;;;;;;;;;5048970;28;1352;-57
2023/06/26 11:25:26;;;;;;;;;;;;;;;;;;5044799;28;4454;-58
2023/06/26 11:27:52;;;;;;;;;;;;;;;;;;5040088;28;4432;-57
2023/06/26 11:30:24;;;;;;;;;;;;;;;;;;5047618;28;5355;-57
2023/06/26 11:32:49;;;;;;;;;;;;;;;;;;5047081;28;5146;-59
2023/06/26 11:35:30;;;;;;;;;;;;;;;;;;5040607;28;5117;-59
2023/06/26 11:38:04;;;;;;;;;;;;;;;;;;5036225;28;1196;-58
2023/06/26 11:40:31;;;;;;;;;;;;;;;;;;5039337;28;4482;-50
2023/06/26 11:42:59;;;;;;;;;;;;;;;;;;5042519;28;5017;-49
2023/06/26 11:45:25;;;;;;;;;;;;;;;;;;5036838;28;5373;-50
2023/06/26 11:47:50;;;;;;;;;;;;;;;;;;5042200;28;4889;-49
2023/06/26 11:50:17;;;;;;;;;;;;;;;;;;5044766;28;4681;-51
2023/06/26 11:52:43;;;;;;;;;;;;;;;;;;5039291;28;1168;-50
2023/06/26 11:55:08;;;;;;;;;;;;;;;;;;5045566;28;4995;-50
2023/06/26 11:57:33;;;;;;;;;;;;;;;;;;5044326;28;4511;-51
2023/06/26 12:00:09;;;;;;;;;;;;;;;;;;5042583;28;5010;-51
2023/06/26 12:02:35;;;;;;;;;;;;;;;;;;5043642;28;5028;-49
2023/06/26 12:05:00;;;;;;;;;;;;;;;;;;5058357;28;1378;-52
2023/06/26 12:07:25;;;;;;;;;;;;;;;;;;5044498;28;5005;-51
2023/06/26 12:09:50;;;;;;;;;;;;;;;;;;5038612;28;5207;-50
2023/06/26 12:12:16;;;;;;;;;;;;;;;;;;5044315;28;4614;-49
2023/06/26 12:14:41;;;;;;;;;;;;;;;;;;5048928;28;5008;-49
2023/06/26 12:17:08;;;;;;;;;;;;;;;;;;5045400;28;1279;-57
2023/06/26 12:19:34;;;;;;;;;;;;;;;;;;5044675;28;5053;-54
2023/06/26 12:21:59;;;;;;;;;;;;;;;;;;5034679;28;4633;-54
2023/06/26 12:24:25;;;;;;;;;;;;;;;;;;5040349;28;5047;-52
2023/06/26 12:26:53;;;;;;;;;;;;;;;;;;5043640;28;5089;-52
2023/06/26 12:29:18;;;;;;;;;;;;;;;;;;5037671;28;5077;-52
2023/06/26 12:31:44;;;;;;;;;;;;;;;;;;5042424;28;1274;-50
2023/06/26 12:34:10;;;;;;;;;;;;;;;;;;5044638;28;5071;-52
2023/06/26 12:36:39;;;;;;;;;;;;;;;;;;5048148;28;4509;-49
2023/06/26 12:39:04;;;;;;;;;;;;;;;;;;5047986;28;5196;-51
2023/06/26 12:41:30;;;;;;;;;;;;;;;;;;5036899;28;5110;-52
2023/06/26 12:43:55;;;;;;;;;;;;;;;;;;5056616;28;1426;-53
2023/06/26 12:46:21;;;;;;;;;;;;;;;;;;5048658;28;5015;-53
2023/06/26 12:48:47;;;;;;;;;;;;;;;;;;5045498;28;5196;-49
2023/06/26 12:51:12;;;;;;;;;;;;;;;;;;5039222;28;4639;-53
2023/06/26 12:53:39;;;;;;;;;;;;;;;;;;5047507;28;4569;-53
2023/06/26 12:56:05;;;;;;;;;;;;;;;;;;5041029;28;3176;-53
2023/06/26 12:58:30;;;;;;;;;;;;;;;;;;5045177;28;4953;-53
2023/06/26 13:00:57;;;;;;;;;;;;;;;;;;5042221;28;4897;-52
2023/06/26 13:03:22;;;;;;;;;;;;;;;;;;5047452;28;5038;-51
2023/06/26 13:05:47;;;;;;;;;;;;;;;;;;5048728;28;4577;-50
2023/06/26 13:08:13;;;;;;;;;;;;;;;;;;5044793;28;5121;-51
2023/06/26 13:10:39;;;;;;;;;;;;;;;;;;5044155;28;1072;-50
2023/06/26 13:13:05;;;;;;;;;;;;;;;;;;5048164;28;5215;-52
2023/06/26 13:15:30;;;;;;;;;;;;;;;;;;5038877;28;4465;-53
2023/06/26 13:17:55;;;;;;;;;;;;;;;;;;5042717;28;5077;-51
2023/06/26 13:20:21;;;;;;;;;;;;;;;;;;5048310;28;4464;-49
2023/06/26 13:22:46;;;;;;;;;;;;;;;;;;5047701;28;1145;-53
2023/06/26 13:25:11;;;;;;;;;;;;;;;;;;5043755;28;5034;-53
2023/06/26 13:27:36;;;;;;;;;;;;;;;;;;5040881;28;4970;-52
2023/06/26 13:30:02;;;;;;;;;;;;;;;;;;5038156;28;5060;-52
2023/06/26 13:32:27;;;;;;;;;;;;;;;;;;5046027;28;4958;-51
2023/06/26 13:34:54;;;;;;;;;;;;;;;;;;5038863;28;1205;-49
2023/06/26 13:37:19;;;;;;;;;;;;;;;;;;5045639;28;4559;-51
2023/06/26 13:39:49;;;;;;;;;;;;;;;;;;5046912;28;4985;-50
2023/06/26 13:42:14;;;;;;;;;;;;;;;;;;5047023;28;4571;-52
2023/06/26 13:44:40;;;;;;;;;;;;;;;;;;5035314;28;5012;-50
2023/06/26 13:47:05;;;;;;;;;;;;;;;;;;5048074;28;1413;-51
2023/06/26 13:49:31;;;;;;;;;;;;;;;;;;5045297;28;4362;-53
2023/06/26 13:51:56;;;;;;;;;;;;;;;;;;5041314;28;4530;-53
2023/06/26 13:54:21;;;;;;;;;;;;;;;;;;5038245;28;5033;-51
2023/06/26 13:56:47;;;;;;;;;;;;;;;;;;5036389;28;4467;-53
2023/06/26 13:59:12;;;;;;;;;;;;;;;;;;5045614;28;5044;-52
2023/06/26 14:01:38;;;;;;;;;;;;;;;;;;5039224;28;3156;-55
2023/06/26 14:04:03;;;;;;;;;;;;;;;;;;5033272;28;4643;-52
2023/06/26 14:06:30;;;;;;;;;;;;;;;;;;5047062;28;4639;-50
2023/06/26 14:08:55;;;;;;;;;;;;;;;;;;5036407;28;5311;-52
2023/06/26 14:11:22;;;;;;;;;;;;;;;;;;5069843;28;5058;-51
2023/06/26 14:13:47;;;;;;;;;;;;;;;;;;5038985;28;3418;-52
2023/06/26 14:16:13;;;;;;;;;;;;;;;;;;5041496;28;5028;-52
2023/06/26 14:18:38;;;;;;;;;;;;;;;;;;5044357;28;4712;-53
2023/06/26 14:21:03;;;;;;;;;;;;;;;;;;5045090;28;5583;-53
2023/06/26 14:23:29;;;;;;;;;;;;;;;;;;5045742;28;5040;-50
2023/06/26 14:25:54;;;;;;;;;;;;;;;;;;5044681;28;3282;-51
2023/06/26 14:28:19;;;;;;;;;;;;;;;;;;5037360;28;5014;-48
2023/06/26 14:30:45;;;;;;;;;;;;;;;;;;5040688;28;4911;-50
2023/06/26 14:33:10;;;;;;;;;;;;;;;;;;5041002;28;5038;-51
2023/06/26 14:35:35;;;;;;;;;;;;;;;;;;5042789;28;5108;-52
2023/06/26 14:38:00;;;;;;;;;;;;;;;;;;5036214;28;1261;-52
2023/06/26 14:40:26;;;;;;;;;;;;;;;;;;5035556;28;5040;-51
2023/06/26 14:42:52;;;;;;;;;;;;;;;;;;5041089;28;5146;-48
2023/06/26 14:45:18;;;;;;;;;;;;;;;;;;5035366;28;4859;-50
2023/06/26 14:47:43;;;;;;;;;;;;;;;;;;5045941;28;5052;-53
2023/06/26 14:50:09;;;;;;;;;;;;;;;;;;5050038;28;1822;-52
2023/06/26 14:52:34;;;;;;;;;;;;;;;;;;5047934;28;4515;-51
2023/06/26 14:54:59;;;;;;;;;;;;;;;;;;5043852;28;4536;-49
2023/06/26 14:57:24;;;;;;;;;;;;;;;;;;5037054;28;5034;-50
2023/06/26 14:59:50;;;;;;;;;;;;;;;;;;5041847;28;5039;-51
2023/06/26 15:02:15;;;;;;;;;;;;;;;;;;5042355;28;5079;-53
2023/06/26 15:04:40;;;;;;;;;;;;;;;;;;5033506;28;3219;-52
2023/06/26 15:07:05;;;;;;;;;;;;;;;;;;5048866;28;4481;-52
2023/06/26 15:09:32;;;;;;;;;;;;;;;;;;5041061;28;5605;-52
2023/06/26 15:11:57;;;;;;;;;;;;;;;;;;5045121;28;5121;-53
2023/06/26 15:14:22;;;;;;;;;;;;;;;;;;5043953;28;5030;-52
2023/06/26 15:16:47;;;;;;;;;;;;;;;;;;5047007;28;3295;-55
2023/06/26 15:19:13;;;;;;;;;;;;;;;;;;5041560;28;5131;-53
2023/06/26 15:21:38;;;;;;;;;;;;;;;;;;5042227;28;5077;-50
2023/06/26 15:24:03;;;;;;;;;;;;;;;;;;5036867;28;4705;-52
2023/06/26 15:26:28;;;;;;;;;;;;;;;;;;5041514;28;4694;-52
2023/06/26 15:28:54;;;;;;;;;;;;;;;;;;5029088;28;3638;-51
2023/06/26 15:31:19;;;;;;;;;;;;;;;;;;5036154;28;5012;-50
2023/06/26 15:33:45;;;;;;;;;;;;;;;;;;5048995;28;4950;-51
2023/06/26 15:36:10;;;;;;;;;;;;;;;;;;5042409;28;5097;-53
2023/06/26 15:38:35;;;;;;;;;;;;;;;;;;5041515;28;4648;-53
2023/06/26 15:41:02;;;;;;;;;;;;;;;;;;5037635;28;3422;-51
2023/06/26 15:43:27;;;;;;;;;;;;;;;;;;5041695;28;4597;-56
2023/06/26 15:45:52;;;;;;;;;;;;;;;;;;5041461;28;5069;-53
2023/06/26 15:48:18;;;;;;;;;;;;;;;;;;5041669;28;4593;-54
2023/06/26 15:50:43;;;;;;;;;;;;;;;;;;5039227;28;4992;-54
2023/06/26 15:53:08;;;;;;;;;;;;;;;;;;5045105;28;3409;-50
2023/06/26 15:55:33;;;;;;;;;;;;;;;;;;5043524;28;4785;-52
2023/06/26 15:58:00;;;;;;;;;;;;;;;;;;5035491;28;5280;-53
2023/06/26 16:00:25;;;;;;;;;;;;;;;;;;5033511;28;5072;-52
2023/06/26 16:02:50;;;;;;;;;;;;;;;;;;5043531;28;4455;-52
2023/06/26 16:05:15;;;;;;;;;;;;;;;;;;5045681;28;5046;-50
2023/06/26 16:07:41;;;;;;;;;;;;;;;;;;5040539;28;5016;-52
2023/06/26 16:10:07;;;;;;;;;;;;;;;;;;5044028;28;5136;-51
2023/06/26 16:12:32;;;;;;;;;;;;;;;;;;5044726;28;4669;-53
2023/06/26 16:14:57;;;;;;;;;;;;;;;;;;5038608;28;4871;-53
2023/06/26 16:17:22;;;;;;;;;;;;;;;;;;5044535;28;5086;-50
2023/06/26 16:19:48;;;;;;;;;;;;;;;;;;5048944;28;1207;-52
2023/06/26 16:22:13;;;;;;;;;;;;;;;;;;5041241;28;4994;-53
2023/06/26 16:24:38;;;;;;;;;;;;;;;;;;5049057;28;5146;-51
2023/06/26 16:27:04;;;;;;;;;;;;;;;;;;5047196;28;4439;-52
2023/06/26 16:29:29;;;;;;;;;;;;;;;;;;5037941;28;4691;-51
2023/06/26 16:31:54;;;;;;;;;;;;;;;;;;5036888;28;2180;-51
2023/06/26 16:34:20;;;;;;;;;;;;;;;;;;5041969;28;4477;-50
2023/06/26 16:36:48;;;;;;;;;;;;;;;;;;5048220;28;4910;-52
2023/06/26 16:39:19;;;;;;;;;;;;;;;;;;5036076;28;5107;-52
2023/06/26 16:41:44;;;;;;;;;;;;;;;;;;5042707;28;4649;-52
2023/06/26 16:44:09;;;;;;;;;;;;;;;;;;5044570;28;3261;-51
2023/06/26 16:46:35;;;;;;;;;;;;;;;;;;5042893;28;5034;-52
2023/06/26 16:49:00;;;;;;;;;;;;;;;;;;5044314;28;4855;-54
2023/06/26 16:51:25;;;;;;;;;;;;;;;;;;5039953;28;4659;-52
2023/06/26 16:53:50;;;;;;;;;;;;;;;;;;5040619;28;4874;-55